Time,TemperatureF,DewpointF,PressureIn,WindDirection,WindDirectionDegrees,WindSpeedMPH,WindSpeedGustMPH,Humidity,HourlyPrecipIn,Conditions,Clouds,dailyrainin,SoftwareType,DateUTC
2013-11-05 00:00:00,53.4,44.6,30.15,NNE,24,0.0,0.0,72,0.00,,SKC,0.00,VWS V13.01,2013-11-05 06:00:00,
2013-11-05 00:10:00,53.6,44.8,30.15,NNE,25,0.0,0.0,72,0.00,,SKC,0.00,VWS V13.01,2013-11-05 06:10:00,
2013-11-05 00:20:00,53.8,45.0,30.15,NNE,25,0.0,0.0,72,0.00,,SKC,0.00,VWS V13.01,2013-11-05 06:20:00,
2013-11-05 00:30:00,53.8,45.0,30.15,NNE,25,0.0,0.0,72,0.00,,SKC,0.00,VWS V13.01,2013-11-05 06:30:00,
2013-11-05 00:40:00,53.6,44.8,30.15,NNE,25,0.0,0.0,72,0.00,,SKC,0.00,VWS V13.01,2013-11-05 06:40:00,
2013-11-05 00:50:00,53.6,44.8,30.15,NNE,25,0.0,0.0,72,0.00,,SKC,0.00,VWS V13.01,2013-11-05 06:50:00,
2013-11-05 01:00:00,53.6,44.8,30.15,NNE,25,0.0,0.0,72,0.00,,SKC,0.00,VWS V13.01,2013-11-05 07:00:00,
2013-11-05 01:10:00,53.4,45.0,30.15,NNE,24,0.0,0.0,73,0.00,,SKC,0.00,VWS V13.01,2013-11-05 07:10:00,
2013-11-05 01:20:00,53.4,45.0,30.15,NNE,24,0.0,0.0,73,0.00,,SKC,0.00,VWS V13.01,2013-11-05 07:20:00,
2013-11-05 01:30:00,53.4,45.0,30.15,NNE,24,0.0,0.0,73,0.00,,SKC,0.00,VWS V13.01,2013-11-05 07:30:00,
2013-11-05 01:40:00,53.2,44.8,30.15,NNE,24,0.0,0.0,73,0.00,,SKC,0.00,VWS V13.01,2013-11-05 07:40:00,
2013-11-05 01:50:00,53.1,44.7,30.15,NNE,25,0.0,0.0,73,0.00,,SKC,0.00,VWS V13.01,2013-11-05 07:50:00,
2013-11-05 02:00:00,53.1,45.0,30.15,NNE,25,0.0,0.0,74,0.00,,SKC,0.00,VWS V13.01,2013-11-05 08:00:00,
2013-11-05 02:10:00,53.4,45.3,30.15,NNE,25,0.0,0.0,74,0.00,,SKC,0.00,VWS V13.01,2013-11-05 08:10:00,
2013-11-05 02:20:00,53.6,45.5,30.15,NNE,25,0.0,0.0,74,0.00,,SKC,0.00,VWS V13.01,2013-11-05 08:20:00,
2013-11-05 02:30:00,53.4,45.3,30.15,NNE,25,0.0,0.0,74,0.00,,SKC,0.00,VWS V13.01,2013-11-05 08:30:00,
2013-11-05 02:40:00,53.6,45.5,30.15,NNE,25,0.0,0.0,74,0.00,,SKC,0.00,VWS V13.01,2013-11-05 08:40:00,
2013-11-05 02:50:00,53.6,45.5,30.15,NNE,25,0.0,0.0,74,0.00,,SKC,0.00,VWS V13.01,2013-11-05 08:50:00,
2013-11-05 03:00:00,53.4,45.3,30.15,NNE,25,0.0,0.0,74,0.00,,SKC,0.00,VWS V13.01,2013-11-05 09:00:00,
2013-11-05 03:10:00,53.4,45.3,30.15,NNE,25,0.0,0.0,74,0.00,,SKC,0.00,VWS V13.01,2013-11-05 09:10:00,
2013-11-05 03:20:00,53.4,45.3,30.15,NNE,25,0.0,0.0,74,0.00,,SKC,0.00,VWS V13.01,2013-11-05 09:20:00,
2013-11-05 03:30:00,53.6,45.5,30.15,NNE,25,0.0,0.0,74,0.00,,SKC,0.00,VWS V13.01,2013-11-05 09:30:00,
2013-11-05 03:40:00,53.6,45.5,30.15,NNE,24,0.0,0.0,74,0.00,,SKC,0.00,VWS V13.01,2013-11-05 09:40:00,
2013-11-05 03:50:00,53.8,46.0,30.15,NNE,25,0.0,0.0,75,0.00,,SKC,0.00,VWS V13.01,2013-11-05 09:50:00,
2013-11-05 04:00:00,53.4,45.7,30.15,NNE,25,0.0,0.0,75,0.00,,SKC,0.00,VWS V13.01,2013-11-05 10:00:00,
2013-11-05 04:10:00,53.2,45.9,30.15,NNE,25,0.0,0.0,76,0.00,,SKC,0.00,VWS V13.01,2013-11-05 10:10:00,
2013-11-05 04:20:00,53.2,45.9,30.15,NNE,24,0.0,0.0,76,0.00,,SKC,0.00,VWS V13.01,2013-11-05 10:20:00,
2013-11-05 04:30:00,53.2,46.2,30.15,NNE,25,0.0,0.0,77,0.00,,SKC,0.00,VWS V13.01,2013-11-05 10:30:00,
2013-11-05 04:40:00,53.2,46.2,30.15,NNE,25,0.0,0.0,77,0.00,,SKC,0.00,VWS V13.01,2013-11-05 10:40:00,
2013-11-05 04:50:00,53.2,46.6,30.15,NNE,25,0.0,0.0,78,0.00,,SKC,0.00,VWS V13.01,2013-11-05 10:50:00,
2013-11-05 05:00:00,53.2,46.9,30.15,NNE,25,0.0,0.0,79,0.00,,SKC,0.00,VWS V13.01,2013-11-05 11:00:00,
2013-11-05 05:10:00,53.2,46.9,30.15,NNE,25,0.0,0.0,79,0.00,,SKC,0.00,VWS V13.01,2013-11-05 11:10:00,
2013-11-05 05:20:00,53.4,47.4,30.15,South,175,0.0,0.0,80,0.00,,SKC,0.00,VWS V13.01,2013-11-05 11:20:00,
2013-11-05 05:30:00,53.6,47.6,30.15,SSW,193,0.0,0.0,80,0.00,,SKC,0.00,VWS V13.01,2013-11-05 11:30:00,
2013-11-05 05:40:00,53.8,48.1,30.15,SSW,193,0.0,0.0,81,0.00,,SKC,0.00,VWS V13.01,2013-11-05 11:40:00,
2013-11-05 05:50:00,53.8,48.4,30.12,SSW,193,0.0,0.0,82,0.00,,SKC,0.00,VWS V13.01,2013-11-05 11:50:00,
2013-11-05 06:00:00,54.0,48.9,30.12,SSW,198,0.0,0.0,83,0.00,,SKC,0.00,VWS V13.01,2013-11-05 12:00:00,
2013-11-05 06:10:00,54.0,49.2,30.15,South,191,0.0,0.0,84,0.00,,SKC,0.00,VWS V13.01,2013-11-05 12:10:00,
2013-11-05 06:20:00,54.0,49.9,30.15,SSW,200,0.0,0.0,86,0.00,,SKC,0.00,VWS V13.01,2013-11-05 12:20:00,
2013-11-05 06:30:00,54.1,50.4,30.15,SSW,197,0.0,0.0,87,0.00,,SKC,0.00,VWS V13.01,2013-11-05 12:30:00,
2013-11-05 06:40:00,54.1,50.7,30.12,South,189,0.0,3.6,88,0.00,,SKC,0.00,VWS V13.01,2013-11-05 12:40:00,
2013-11-05 06:50:00,54.1,51.3,30.12,SSW,195,0.0,5.8,90,0.00,,SKC,0.00,VWS V13.01,2013-11-05 12:50:00,
2013-11-05 07:00:00,54.0,51.4,30.12,SSW,192,0.0,0.0,91,0.00,,SKC,0.00,VWS V13.01,2013-11-05 13:00:00,
2013-11-05 07:10:00,54.0,51.7,30.12,South,174,0.0,5.4,92,0.00,,SKC,0.00,VWS V13.01,2013-11-05 13:10:00,
2013-11-05 07:20:00,54.0,52.0,30.12,SSW,208,0.0,0.0,93,0.00,,SKC,0.00,VWS V13.01,2013-11-05 13:20:00,
2013-11-05 07:30:00,53.8,52.1,30.12,South,185,0.0,0.0,94,0.00,,SKC,0.00,VWS V13.01,2013-11-05 13:30:00,
2013-11-05 07:40:00,53.8,52.4,30.12,SSW,207,0.0,5.8,95,0.00,,SKC,0.00,VWS V13.01,2013-11-05 13:40:00,
2013-11-05 07:50:00,53.8,52.7,30.12,SSW,202,0.0,0.0,96,0.00,,SKC,0.00,VWS V13.01,2013-11-05 13:50:00,
2013-11-05 08:00:00,53.8,53.0,30.12,South,179,0.0,0.0,97,0.00,,SKC,0.00,VWS V13.01,2013-11-05 14:00:00,
2013-11-05 08:10:00,53.8,53.2,30.12,South,175,0.0,0.0,98,0.00,,SKC,0.00,VWS V13.01,2013-11-05 14:10:00,
2013-11-05 08:20:00,53.8,53.2,30.12,South,181,0.0,4.0,98,0.00,,SKC,0.00,VWS V13.01,2013-11-05 14:20:00,
2013-11-05 08:30:00,53.8,53.5,30.12,South,182,0.0,0.0,99,0.00,,SKC,0.00,VWS V13.01,2013-11-05 14:30:00,
2013-11-05 08:40:00,53.8,53.8,30.12,NNE,25,0.0,2.7,100,0.00,,SKC,0.00,VWS V13.01,2013-11-05 14:40:00,
2013-11-05 08:50:00,53.8,53.8,30.12,South,179,0.0,0.0,100,0.00,,SKC,0.00,VWS V13.01,2013-11-05 14:50:00,
2013-11-05 09:00:00,53.8,53.8,30.12,South,187,0.0,0.0,100,0.00,,SKC,0.00,VWS V13.01,2013-11-05 15:00:00,
2013-11-05 09:10:00,53.8,53.8,30.12,SSW,205,0.0,2.7,100,0.00,,SKC,0.00,VWS V13.01,2013-11-05 15:10:00,
2013-11-05 09:20:00,54.0,54.0,30.09,SSW,203,0.0,0.0,100,0.00,,SKC,0.00,VWS V13.01,2013-11-05 15:20:00,
2013-11-05 09:30:00,54.0,54.0,30.09,South,170,0.0,3.6,100,0.00,,SKC,0.00,VWS V13.01,2013-11-05 15:30:00,
2013-11-05 09:40:00,54.1,54.1,30.09,South,176,0.0,2.7,100,0.00,,SKC,0.00,VWS V13.01,2013-11-05 15:40:00,
2013-11-05 09:50:00,54.1,54.1,30.09,South,186,0.0,0.0,100,0.00,,SKC,0.00,VWS V13.01,2013-11-05 15:50:00,
2013-11-05 10:00:00,54.3,54.3,30.09,SSW,192,0.0,5.4,100,0.00,,SKC,0.00,VWS V13.01,2013-11-05 16:00:00,
2013-11-05 10:10:00,54.5,54.5,30.09,SSW,198,0.0,3.6,100,0.00,,SKC,0.00,VWS V13.01,2013-11-05 16:10:00,
2013-11-05 10:20:00,54.5,54.5,30.06,South,178,0.0,0.0,100,0.00,,SKC,0.00,VWS V13.01,2013-11-05 16:20:00,
2013-11-05 10:30:00,54.7,54.7,30.06,South,182,0.0,3.6,100,0.00,,SKC,0.00,VWS V13.01,2013-11-05 16:30:00,
2013-11-05 10:40:00,54.9,54.9,30.06,South,185,0.0,0.0,100,0.00,,SKC,0.00,VWS V13.01,2013-11-05 16:40:00,
2013-11-05 10:50:00,54.9,54.9,30.06,ENE,71,0.0,2.7,100,0.00,,SKC,0.00,VWS V13.01,2013-11-05 16:50:00,
2013-11-05 11:00:00,55.0,55.0,30.06,NE,41,0.0,0.0,100,0.00,,SKC,0.00,VWS V13.01,2013-11-05 17:00:00,
2013-11-05 11:10:00,55.2,55.2,30.06,NNE,19,0.0,0.0,100,0.00,,SKC,0.00,VWS V13.01,2013-11-05 17:10:00,
2013-11-05 11:20:00,55.4,55.4,30.06,East,87,0.0,2.7,100,0.00,,SKC,0.00,VWS V13.01,2013-11-05 17:20:00,
2013-11-05 11:30:00,55.4,55.4,30.06,ENE,75,0.0,0.0,100,0.00,,SKC,0.00,VWS V13.01,2013-11-05 17:30:00,
2013-11-05 11:40:00,55.6,55.6,30.03,NE,56,0.0,0.0,100,0.00,,SKC,0.00,VWS V13.01,2013-11-05 17:40:00,
2013-11-05 11:50:00,55.8,55.8,30.03,NE,54,0.0,0.0,100,0.00,,SKC,0.00,VWS V13.01,2013-11-05 17:50:00,
2013-11-05 12:00:00,55.9,55.9,30.03,North,4,0.0,0.0,100,0.00,,SKC,0.00,VWS V13.01,2013-11-05 18:00:00,
2013-11-05 12:10:00,55.9,55.9,30.03,ENE,59,0.0,0.0,100,0.00,,SKC,0.00,VWS V13.01,2013-11-05 18:10:00,
2013-11-05 12:20:00,56.1,56.1,30.00,NNE,22,0.0,0.0,100,0.00,,SKC,0.00,VWS V13.01,2013-11-05 18:20:00,
2013-11-05 12:30:00,56.3,56.3,30.00,ENE,78,0.0,0.0,100,0.00,,SKC,0.00,VWS V13.01,2013-11-05 18:30:00,
2013-11-05 12:40:00,56.5,56.5,30.00,NE,41,0.0,0.0,100,0.00,,SKC,0.00,VWS V13.01,2013-11-05 18:40:00,
2013-11-05 12:50:00,56.7,56.7,29.97,South,177,0.0,2.2,100,0.00,,SKC,0.00,VWS V13.01,2013-11-05 18:50:00,
2013-11-05 13:00:00,56.7,56.7,29.97,East,83,0.0,3.6,100,0.00,,SKC,0.00,VWS V13.01,2013-11-05 19:00:00,
2013-11-05 13:10:00,56.8,56.8,29.97,East,95,0.0,0.0,100,0.00,,SKC,0.00,VWS V13.01,2013-11-05 19:10:00,
2013-11-05 13:20:00,57.0,57.0,29.94,ESE,105,0.0,0.0,100,0.00,,SKC,0.00,VWS V13.01,2013-11-05 19:20:00,
2013-11-05 13:30:00,57.2,57.2,29.94,ENE,64,0.0,0.0,100,0.00,,SKC,0.00,VWS V13.01,2013-11-05 19:30:00,
2013-11-05 13:40:00,57.4,57.4,29.97,NE,50,0.0,2.7,100,0.00,,SKC,0.00,VWS V13.01,2013-11-05 19:40:00,
2013-11-05 13:50:00,57.4,57.4,29.94,NNE,31,0.0,0.0,100,0.00,,SKC,0.00,VWS V13.01,2013-11-05 19:50:00,
2013-11-05 14:00:00,57.6,57.6,29.94,NNW,342,0.0,2.2,100,0.00,,SKC,0.00,VWS V13.01,2013-11-05 20:00:00,
2013-11-05 14:10:00,57.7,57.7,29.94,NNE,27,0.0,0.0,100,0.00,,SKC,0.00,VWS V13.01,2013-11-05 20:10:00,
2013-11-05 14:20:00,57.9,57.9,29.94,SSE,150,0.0,0.0,100,0.00,,SKC,0.00,VWS V13.01,2013-11-05 20:20:00,
2013-11-05 14:30:00,57.9,57.9,29.94,WSW,258,0.0,0.0,100,0.00,,SKC,0.00,VWS V13.01,2013-11-05 20:30:00,
2013-11-05 14:40:00,58.1,58.1,29.91,ENE,64,0.0,0.0,100,0.00,,SKC,0.00,VWS V13.01,2013-11-05 20:40:00,
2013-11-05 14:50:00,58.1,58.1,29.94,ENE,62,0.0,0.0,100,0.00,,SKC,0.00,VWS V13.01,2013-11-05 20:50:00,
2013-11-05 15:00:00,58.1,58.1,29.94,NE,34,0.0,0.0,100,0.00,,SKC,0.00,VWS V13.01,2013-11-05 21:00:00,
2013-11-05 15:10:00,58.1,58.1,29.94,NE,52,0.0,0.0,100,0.04,,SKC,0.04,VWS V13.01,2013-11-05 21:10:00,
2013-11-05 15:20:00,57.9,57.9,29.94,ESE,114,0.0,0.0,100,0.08,,SKC,0.08,VWS V13.01,2013-11-05 21:20:00,
2013-11-05 15:30:00,57.9,57.9,29.94,NE,43,0.0,0.0,100,0.08,,SKC,0.08,VWS V13.01,2013-11-05 21:30:00,
2013-11-05 15:40:00,57.9,57.9,29.94,SE,127,0.0,0.0,100,0.08,,SKC,0.08,VWS V13.01,2013-11-05 21:40:00,
2013-11-05 15:50:00,57.9,57.9,29.91,NE,54,0.0,0.0,100,0.12,,SKC,0.12,VWS V13.01,2013-11-05 21:50:00,
2013-11-05 16:00:00,57.9,57.9,29.91,East,85,0.0,0.0,100,0.16,,SKC,0.16,VWS V13.01,2013-11-05 22:00:00,
2013-11-05 16:10:00,57.9,57.9,29.91,East,89,0.0,0.0,100,0.16,,SKC,0.16,VWS V13.01,2013-11-05 22:10:00,
2013-11-05 16:20:00,57.9,57.9,29.91,East,100,0.0,0.0,100,0.12,,SKC,0.16,VWS V13.01,2013-11-05 22:20:00,
2013-11-05 16:30:00,57.9,57.9,29.91,North,9,0.0,0.0,100,0.08,,SKC,0.16,VWS V13.01,2013-11-05 22:30:00,
2013-11-05 16:40:00,58.1,58.1,29.91,NNE,29,0.0,0.0,100,0.08,,SKC,0.16,VWS V13.01,2013-11-05 22:40:00,
2013-11-05 16:50:00,58.1,58.1,29.91,NNE,29,0.0,0.0,100,0.08,,SKC,0.16,VWS V13.01,2013-11-05 22:50:00,
2013-11-05 17:00:00,58.1,58.1,29.91,SE,136,0.0,0.0,100,0.04,,SKC,0.16,VWS V13.01,2013-11-05 23:00:00,
2013-11-05 17:10:00,58.1,58.1,29.91,ENE,71,0.0,0.0,100,0.00,,SKC,0.16,VWS V13.01,2013-11-05 23:10:00,
2013-11-05 17:20:00,58.3,58.3,29.91,ENE,75,0.0,0.0,100,0.00,,SKC,0.16,VWS V13.01,2013-11-05 23:20:00,
2013-11-05 17:30:00,58.5,58.5,29.91,NE,45,0.0,3.1,100,0.00,,SKC,0.16,VWS V13.01,2013-11-05 23:30:00,
2013-11-05 17:40:00,58.5,58.5,29.91,NE,55,0.0,0.0,100,0.00,,SKC,0.16,VWS V13.01,2013-11-05 23:40:00,
2013-11-05 17:50:00,58.6,58.6,29.91,NNE,14,0.0,3.1,100,0.00,,SKC,0.16,VWS V13.01,2013-11-05 23:50:00,
2013-11-05 18:00:00,58.6,58.6,29.91,ENE,65,0.0,0.0,100,0.00,,SKC,0.16,VWS V13.01,2013-11-06 00:00:00,
2013-11-05 18:10:00,58.6,58.6,29.91,ESE,122,0.0,0.0,100,0.00,,SKC,0.16,VWS V13.01,2013-11-06 00:10:00,
2013-11-05 18:20:00,58.6,58.6,29.91,ENE,67,0.0,0.0,100,0.00,,SKC,0.16,VWS V13.01,2013-11-06 00:20:00,
2013-11-05 18:30:00,58.6,58.6,29.91,ENE,68,0.0,0.0,100,0.00,,SKC,0.16,VWS V13.01,2013-11-06 00:30:00,
2013-11-05 18:40:00,58.6,58.6,29.91,NE,39,0.0,0.0,100,0.00,,SKC,0.16,VWS V13.01,2013-11-06 00:40:00,
2013-11-05 18:50:00,58.6,58.6,29.91,East,86,0.0,0.0,100,0.00,,SKC,0.16,VWS V13.01,2013-11-06 00:50:00,
2013-11-05 19:00:00,58.6,58.6,29.91,East,86,0.0,0.0,100,0.00,,SKC,0.16,VWS V13.01,2013-11-06 01:00:00,
2013-11-05 19:10:00,58.6,58.6,29.91,ENE,76,0.0,0.0,100,0.00,,SKC,0.16,VWS V13.01,2013-11-06 01:10:00,
2013-11-05 19:20:00,58.8,58.8,29.91,NE,49,0.0,0.0,100,0.00,,SKC,0.16,VWS V13.01,2013-11-06 01:20:00,
2013-11-05 19:30:00,58.8,58.8,29.91,NNE,32,0.0,0.0,100,0.00,,SKC,0.16,VWS V13.01,2013-11-06 01:30:00,
2013-11-05 19:40:00,58.8,58.8,29.91,NE,43,0.0,0.0,100,0.04,,SKC,0.20,VWS V13.01,2013-11-06 01:40:00,
2013-11-05 19:50:00,59.0,59.0,29.91,ENE,61,0.0,0.0,100,0.04,,SKC,0.20,VWS V13.01,2013-11-06 01:50:00,
2013-11-05 20:00:00,59.0,59.0,29.91,NNE,27,0.0,0.0,100,0.04,,SKC,0.20,VWS V13.01,2013-11-06 02:00:00,
2013-11-05 20:10:00,59.0,59.0,29.91,ENE,76,0.0,0.0,100,0.04,,SKC,0.20,VWS V13.01,2013-11-06 02:10:00,
2013-11-05 20:20:00,59.2,59.2,29.88,East,97,0.0,0.0,100,0.04,,SKC,0.20,VWS V13.01,2013-11-06 02:20:00,
2013-11-05 20:30:00,59.4,59.4,29.88,South,191,0.0,0.0,100,0.04,,SKC,0.20,VWS V13.01,2013-11-06 02:30:00,
2013-11-05 20:40:00,59.4,59.4,29.91,SE,126,0.0,0.0,100,0.04,,SKC,0.20,VWS V13.01,2013-11-06 02:40:00,
2013-11-05 20:50:00,59.5,59.5,29.91,East,87,0.0,0.0,100,0.00,,SKC,0.20,VWS V13.01,2013-11-06 02:50:00,
2013-11-05 21:00:00,59.5,59.5,29.91,East,89,0.0,0.0,100,0.00,,SKC,0.20,VWS V13.01,2013-11-06 03:00:00,
2013-11-05 21:10:00,59.7,59.7,29.91,East,89,0.0,0.0,100,0.00,,SKC,0.20,VWS V13.01,2013-11-06 03:10:00,
2013-11-05 21:20:00,59.7,59.7,29.91,East,90,0.0,2.2,100,0.00,,SKC,0.20,VWS V13.01,2013-11-06 03:20:00,
2013-11-05 21:30:00,59.9,59.9,29.91,NE,49,0.0,5.4,100,0.04,,SKC,0.24,VWS V13.01,2013-11-06 03:30:00,
2013-11-05 21:40:00,59.9,59.9,29.91,ENE,58,0.0,0.0,100,0.04,,SKC,0.24,VWS V13.01,2013-11-06 03:40:00,
2013-11-05 21:50:00,59.9,59.9,29.91,ENE,75,0.0,0.0,100,0.04,,SKC,0.24,VWS V13.01,2013-11-06 03:50:00,
2013-11-05 22:00:00,56.5,56.5,29.91,NNE,16,7.2,8.7,100,0.04,,SKC,0.24,VWS V13.01,2013-11-06 04:00:00,
2013-11-05 22:10:00,51.1,47.3,29.94,ENE,70,3.1,7.6,87,0.04,,SKC,0.24,VWS V13.01,2013-11-06 04:10:00,
2013-11-05 22:20:00,48.2,46.6,29.94,NNE,18,3.1,10.5,94,0.04,,SKC,0.24,VWS V13.01,2013-11-06 04:20:00,
2013-11-05 22:30:00,46.9,46.1,29.94,NE,38,5.4,8.7,97,0.04,,SKC,0.24,VWS V13.01,2013-11-06 04:30:00,
2013-11-05 22:40:00,46.0,46.0,29.94,NE,42,0.0,8.1,100,0.00,,SKC,0.24,VWS V13.01,2013-11-06 04:40:00,
2013-11-05 22:50:00,45.9,45.9,29.97,ENE,63,0.0,0.0,100,0.00,,SKC,0.24,VWS V13.01,2013-11-06 04:50:00,
2013-11-05 23:00:00,45.1,45.1,29.97,NNE,25,3.6,6.3,100,0.00,,SKC,0.24,VWS V13.01,2013-11-06 05:00:00,
2013-11-05 23:10:00,44.6,44.6,29.97,NNE,18,4.0,4.5,100,0.00,,SKC,0.24,VWS V13.01,2013-11-06 05:10:00,
2013-11-05 23:20:00,43.5,43.5,29.97,NE,49,0.0,4.0,100,0.00,,SKC,0.24,VWS V13.01,2013-11-06 05:20:00,
2013-11-05 23:30:00,42.8,42.8,29.97,NNE,27,4.9,6.3,100,0.00,,SKC,0.24,VWS V13.01,2013-11-06 05:30:00,
2013-11-05 23:40:00,42.3,42.3,30.00,North,8,6.7,8.7,100,0.00,,SKC,0.24,VWS V13.01,2013-11-06 05:40:00,
2013-11-05 23:50:00,42.1,42.1,30.00,NE,36,3.1,8.1,100,0.00,,SKC,0.24,VWS V13.01,2013-11-06 05:50:00,